Time;durP1;ratioP1;P1;durP2;ratioP2;P2;SDS_P1;SDS_P2;PMS_P1;PMS_P2;Temp;Humidity;BMP_temperature;BMP_pressure;BME280_temperature;BME280_humidity;BME280_pressure;Samples;Min_cycle;Max_cycle;Signal;HPM_P1;HPM_P2
2022/01/05 00:00:45;;;;;;;5.80;2.53;;;6.60;71.20;;;9.28;54.72;99589.88;4860905;29;20274;-61
2022/01/05 00:03:12;;;;;;;8.17;1.90;;;6.60;71.20;;;9.26;55.01;99587.47;4860724;29;20317;-61
2022/01/05 00:05:40;;;;;;;6.10;2.50;;;6.50;71.30;;;9.23;54.94;99590.47;4861060;29;20279;-61
2022/01/05 00:08:08;;;;;;;9.10;1.93;;;6.50;71.20;;;9.19;55.13;99586.63;4860688;29;20279;-61
2022/01/05 00:10:35;;;;;;;9.20;2.70;;;6.40;71.20;;;9.17;55.05;99578.13;4861242;29;20192;-60
2022/01/05 00:13:03;;;;;;;6.10;2.20;;;6.40;71.40;;;9.15;55.23;99579.34;4860528;29;20293;-60
2022/01/05 00:15:30;;;;;;;7.70;1.90;;;6.40;71.40;;;9.12;55.05;99580.53;4859519;29;20257;-61
2022/01/05 00:17:58;;;;;;;7.73;1.80;;;6.40;71.40;;;9.08;55.33;99576.66;4863687;29;20281;-62
2022/01/05 00:20:26;;;;;;;7.33;2.30;;;6.30;71.40;;;9.05;55.51;99563.13;4864566;29;20207;-61
2022/01/05 00:22:53;;;;;;;6.23;2.30;;;6.30;71.60;;;9.04;55.22;99575.44;4863958;29;20637;-62
2022/01/05 00:25:21;;;;;;;8.53;2.13;;;6.30;71.70;;;9.01;55.59;99565.31;4864386;29;20204;-61
2022/01/05 00:27:48;;;;;;;5.40;1.73;;;6.20;71.60;;;9.00;55.71;99560.25;4864541;29;20379;-61
2022/01/05 00:30:15;;;;;;;6.33;1.97;;;6.20;71.60;;;8.99;55.38;99562.06;4864276;29;20204;-61
2022/01/05 00:32:43;;;;;;;8.17;2.20;;;6.20;71.70;;;8.97;55.25;99553.59;4864096;29;20683;-61
2022/01/05 00:35:12;;;;;;;5.53;1.57;;;6.20;71.80;;;8.96;55.21;99556.41;4863162;29;20582;-61
2022/01/05 00:37:40;;;;;;;7.70;1.93;;;6.20;72.00;;;8.95;55.34;99560.84;4864713;29;20591;-60
2022/01/05 00:40:09;;;;;;;9.57;2.20;;;6.20;72.00;;;8.93;55.02;99560.22;4864472;29;20198;-59
2022/01/05 00:42:36;;;;;;;7.37;1.77;;;6.10;71.80;;;8.92;55.27;99553.34;4863888;29;20198;-61
2022/01/05 00:45:04;;;;;;;4.57;2.10;;;6.10;71.80;;;8.89;55.74;99551.09;4864245;29;20216;-61
2022/01/05 00:47:32;;;;;;;7.00;2.13;;;6.10;71.80;;;8.88;55.68;99552.13;4864177;29;20198;-61
2022/01/05 00:49:59;;;;;;;5.80;2.17;;;6.10;71.80;;;8.87;55.53;99555.75;4862986;29;20220;-61
2022/01/05 00:52:28;;;;;;;7.73;2.13;;;6.10;71.80;;;8.86;55.28;99559.38;4862824;29;20209;-62
2022/01/05 00:54:55;;;;;;;6.67;1.90;;;6.10;71.80;;;8.84;55.35;99549.06;4863975;29;20225;-61
2022/01/05 00:57:22;;;;;;;7.77;2.17;;;6.10;71.80;;;8.85;55.57;99557.75;4864034;29;20200;-60
2022/01/05 00:59:50;;;;;;;4.17;1.47;;;6.00;71.70;;;8.83;55.13;99554.50;4864100;29;20232;-61
2022/01/05 01:02:17;;;;;;;6.60;1.70;;;6.10;71.70;;;8.79;55.49;99554.06;4864107;29;20581;-59
2022/01/05 01:04:45;;;;;;;7.03;1.90;;;6.00;71.50;;;8.79;55.62;99555.91;4863734;29;20703;-61
2022/01/05 01:07:13;;;;;;;6.30;1.80;;;6.00;71.50;;;8.78;55.28;99551.66;4862520;29;20193;-60
2022/01/05 01:09:42;;;;;;;4.57;1.70;;;6.00;71.60;;;8.75;55.48;99554.66;4863781;29;20283;-62
2022/01/05 01:12:10;;;;;;;4.23;1.80;;;6.00;71.60;;;8.75;55.48;99554.66;4863618;29;20668;-61
2022/01/05 01:14:38;;;;;;;8.83;1.70;;;6.00;71.80;;;8.74;55.51;99559.13;4863146;29;20326;-61
2022/01/05 01:17:05;;;;;;;6.63;2.03;;;5.90;71.80;;;8.72;55.67;99562.94;4863695;29;20198;-61
2022/01/05 01:19:33;;;;;;;8.10;2.60;;;5.90;71.70;;;8.70;55.70;99557.84;4862248;29;20199;-61
2022/01/05 01:22:01;;;;;;;6.07;1.60;;;5.90;71.80;;;8.69;55.47;99568.53;4863624;29;20231;-62
2022/01/05 01:24:28;;;;;;;12.83;2.40;;;5.90;71.90;;;8.68;55.37;99562.47;4863308;29;20235;-61
2022/01/05 01:26:57;;;;;;;5.93;1.83;;;5.90;71.70;;;8.68;55.33;99561.66;4863454;29;20197;-61
2022/01/05 01:29:24;;;;;;;8.17;1.77;;;5.90;71.70;;;8.67;55.46;99566.13;4862409;29;20264;-61
2022/01/05 01:31:52;;;;;;;5.67;1.50;;;5.90;71.70;;;8.65;55.42;99562.06;4863383;29;20200;-61
2022/01/05 01:34:20;;;;;;;5.60;1.33;;;5.90;71.30;;;8.62;55.46;99559.81;4863075;29;20213;-60
2022/01/05 01:36:47;;;;;;;5.40;1.57;;;5.90;71.30;;;8.63;55.50;99561.41;4863266;29;20256;-59
2022/01/05 01:39:15;;;;;;;5.27;1.80;;;5.90;71.20;;;8.64;55.44;99561.25;4863418;29;20202;-60
2022/01/05 01:41:42;;;;;;;6.00;1.70;;;5.90;71.20;;;8.64;55.05;99555.19;4863323;29;20200;-61
2022/01/05 01:44:11;;;;;;;4.87;2.10;;;5.90;70.90;;;8.66;55.15;99558.44;4863012;29;20759;-57
2022/01/05 01:46:38;;;;;;;5.43;1.93;;;5.90;70.90;;;8.67;55.08;99552.19;4862816;29;20205;-60
2022/01/05 01:49:05;;;;;;;7.03;1.87;;;5.90;70.80;;;8.67;54.83;99549.56;4863670;29;20267;-56
2022/01/05 01:51:33;;;;;;;4.60;1.27;;;5.90;70.70;;;8.66;55.13;99547.94;4863873;29;20297;-60
2022/01/05 01:54:02;;;;;;;7.70;1.63;;;5.90;70.80;;;8.65;54.75;99551.59;4862826;29;20328;-56
2022/01/05 01:56:34;;;;;;;6.57;1.77;;;5.90;70.70;;;8.61;54.88;99545.88;4863172;29;20222;-56
2022/01/05 01:59:02;;;;;;;6.90;2.00;;;5.90;70.70;;;8.59;54.87;99547.91;4863473;29;20202;-57
2022/01/05 02:01:30;;;;;;;7.00;1.80;;;5.80;70.60;;;8.57;55.14;99547.28;4862851;29;20224;-60
2022/01/05 02:03:58;;;;;;;8.50;1.73;;;5.80;70.70;;;8.56;55.20;99544.84;4862843;29;20300;-60
2022/01/05 02:06:26;;;;;;;4.90;1.87;;;5.80;70.80;;;8.54;55.22;99544.22;4862950;29;20194;-61
2022/01/05 02:08:54;;;;;;;3.67;1.47;;;5.80;70.70;;;8.51;55.25;99532.28;4863151;29;20650;-59
2022/01/05 02:11:21;;;;;;;6.77;2.03;;;5.80;70.70;;;8.50;54.98;99537.75;4862886;29;20285;-59
2022/01/05 02:13:49;;;;;;;6.70;1.93;;;5.80;70.90;;;8.49;55.21;99536.09;4862659;29;20300;-61
2022/01/05 02:16:19;;;;;;;8.87;1.77;;;5.70;70.80;;;8.49;55.17;99536.09;4862849;29;20213;-61
2022/01/05 02:19:00;;;;;;;4.43;1.60;;;5.70;70.90;;;8.50;54.94;99540.38;4862476;29;20210;-61
2022/01/05 02:21:31;;;;;;;7.33;2.33;;;5.70;71.10;;;8.47;55.05;99527.63;4862834;29;20220;-62
2022/01/05 02:24:00;;;;;;;4.77;1.57;;;5.70;70.90;;;8.45;55.25;99522.59;4862451;29;20224;-61
2022/01/05 02:26:28;;;;;;;9.10;2.03;;;5.70;70.90;;;8.47;55.34;99517.13;4862682;29;20280;-61
2022/01/05 02:28:55;;;;;;;8.10;1.93;;;5.70;71.00;;;8.47;55.12;99520.59;4862563;29;20682;-61
2022/01/05 02:31:23;;;;;;;6.77;1.40;;;5.70;71.00;;;8.47;55.18;99530.25;4862522;29;20207;-61
2022/01/05 02:33:51;;;;;;;7.50;1.67;;;5.70;71.80;;;8.45;55.12;99535.69;4861686;29;20214;-61
2022/01/05 02:36:20;;;;;;;6.53;1.50;;;5.70;70.90;;;8.44;55.02;99528.81;4862115;29;20217;-61
2022/01/05 02:38:52;;;;;;;7.50;1.77;;;5.70;70.90;;;8.44;54.92;99523.56;4862162;29;20251;-61
2022/01/05 02:41:20;;;;;;;7.10;2.17;;;5.70;70.90;;;8.44;54.88;99528.03;4862234;29;20664;-60
2022/01/05 02:43:48;;;;;;;5.50;1.70;;;5.70;70.80;;;8.42;55.05;99519.53;4861704;29;20224;-60
2022/01/05 02:46:19;;;;;;;6.63;1.67;;;5.70;70.80;;;8.42;55.02;99514.28;4862074;29;20193;-61
2022/01/05 02:48:51;;;;;;;4.77;1.70;;;5.70;71.70;;;8.42;54.88;99527.38;4862056;29;20280;-62
2022/01/05 02:51:19;;;;;;;4.47;1.80;;;5.70;70.80;;;8.43;54.87;99527.22;4862004;29;20210;-61
2022/01/05 02:53:49;;;;;;;8.93;2.10;;;5.70;70.80;;;8.41;54.89;99517.91;4861656;29;20239;-61
2022/01/05 02:56:18;;;;;;;7.30;1.70;;;5.70;70.90;;;8.43;54.84;99516.72;4861830;29;20223;-61
2022/01/05 02:58:45;;;;;;;5.57;2.10;;;5.70;70.60;;;8.43;54.77;99515.91;4861714;29;20196;-61
2022/01/05 03:01:12;;;;;;;6.27;2.20;;;5.70;70.60;;;8.46;54.84;99515.53;4861774;29;20225;-62
2022/01/05 03:03:40;;;;;;;8.00;1.90;;;5.70;70.60;;;8.48;54.88;99510.91;4861519;29;20224;-62
2022/01/05 03:06:08;;;;;;;7.30;1.97;;;5.70;70.40;;;8.48;54.58;99513.53;4862044;29;20194;-61
2022/01/05 03:08:35;;;;;;;10.27;2.57;;;5.70;70.40;;;8.48;54.47;99511.72;4861671;29;20212;-61
2022/01/05 03:11:04;;;;;;;5.00;1.30;;;5.70;70.20;;;8.49;54.77;99509.88;4861910;29;20194;-59
2022/01/05 03:13:31;;;;;;;6.20;2.07;;;5.70;70.30;;;8.51;54.69;99513.16;4861165;29;20245;-58
2022/01/05 03:15:59;;;;;;;5.60;1.90;;;5.70;70.20;;;8.51;54.51;99513.16;4862767;29;20232;-61
2022/01/05 03:18:26;;;;;;;6.47;1.67;;;5.70;70.20;;;8.51;54.46;99513.16;4863308;29;20199;-61
2022/01/05 03:20:54;;;;;;;6.83;1.93;;;5.70;69.90;;;8.49;54.34;99515.13;4860479;29;20272;-61
2022/01/05 03:23:21;;;;;;;8.27;2.17;;;5.70;69.80;;;8.48;54.40;99508.28;4861176;29;20234;-61
2022/01/05 03:25:48;;;;;;;8.23;2.50;;;5.70;69.80;;;8.48;54.64;99519.59;4860417;29;20196;-62
2022/01/05 03:28:17;;;;;;;6.03;1.73;;;5.70;69.70;;;8.50;54.47;99506.28;4861533;29;20199;-61
2022/01/05 03:30:44;;;;;;;5.17;1.67;;;5.70;69.70;;;8.53;54.34;99513.78;4861416;29;20196;-59
2022/01/05 03:33:12;;;;;;;4.93;1.87;;;5.70;69.70;;;8.54;54.10;99518.00;4860966;29;20221;-61
2022/01/05 03:35:43;;;;;;;8.10;1.57;;;5.70;69.80;;;8.56;53.94;99516.00;4861404;29;20222;-60
2022/01/05 03:38:15;;;;;;;3.90;1.53;;;5.70;69.70;;;8.58;53.95;99519.25;4861367;29;20200;-60
2022/01/05 03:40:43;;;;;;;5.47;1.60;;;5.80;69.80;;;8.56;54.21;99513.38;4861198;29;20285;-61
2022/01/05 03:43:12;;;;;;;4.40;1.80;;;5.80;69.60;;;8.55;54.21;99517.00;4860801;29;20224;-61
2022/01/05 03:45:41;;;;;;;10.83;2.20;;;5.80;69.60;;;8.52;54.11;99514.75;4861192;29;20193;-62
2022/01/05 03:48:11;;;;;;;8.37;2.20;;;5.70;69.40;;;8.49;53.89;99509.88;4861086;29;20229;-61
2022/01/05 03:50:40;;;;;;;8.33;1.57;;;5.70;69.40;;;8.46;53.87;99505.84;4860949;29;20557;-61
2022/01/05 03:53:09;;;;;;;9.47;2.10;;;5.70;69.40;;;8.43;54.00;99516.72;4860177;29;20221;-62
2022/01/05 03:55:40;;;;;;;7.60;2.07;;;5.70;69.30;;;8.41;54.11;99523.16;4860203;29;20272;-61
2022/01/05 03:58:08;;;;;;;7.63;2.37;;;5.70;69.40;;;8.39;53.93;99520.72;4860563;29;20288;-60
2022/01/05 04:00:40;;;;;;;9.23;1.90;;;5.70;69.40;;;8.37;54.18;99521.94;4861058;29;20230;-62
2022/01/05 04:03:08;;;;;;;5.53;1.70;;;5.60;69.40;;;8.37;54.17;99516.69;4860844;29;20222;-58
2022/01/05 04:05:36;;;;;;;8.07;2.00;;;5.60;69.40;;;8.37;54.11;99521.94;4860799;29;20281;-61
2022/01/05 04:08:04;;;;;;;6.87;1.90;;;5.60;69.40;;;8.37;54.30;99514.84;4860857;29;20321;-61
2022/01/05 04:10:32;;;;;;;6.17;1.80;;;5.60;69.40;;;8.39;54.02;99519.94;4860929;29;20618;-56
2022/01/05 04:13:00;;;;;;;5.60;1.30;;;5.60;69.40;;;8.39;54.20;99525.94;4860253;29;20246;-61
2022/01/05 04:15:27;;;;;;;3.13;1.53;;;5.60;69.50;;;8.39;54.12;99525.16;4860765;29;20206;-61
2022/01/05 04:17:56;;;;;;;9.37;1.70;;;5.60;69.40;;;8.42;54.05;99522.16;4860856;29;20275;-60
2022/01/05 04:20:24;;;;;;;3.80;1.30;;;5.60;69.40;;;8.42;53.81;99527.38;4860953;29;20215;-60
2022/01/05 04:22:51;;;;;;;10.50;2.90;;;5.60;69.40;;;8.40;53.87;99517.09;4861176;29;20675;-61
2022/01/05 04:25:18;;;;;;;4.83;1.83;;;5.70;69.30;;;8.43;54.07;99521.16;4861069;29;20279;-62
2022/01/05 04:27:46;;;;;;;6.50;1.90;;;5.70;69.30;;;8.47;53.88;99514.53;4860878;29;20204;-61
2022/01/05 04:30:13;;;;;;;6.63;1.97;;;5.70;69.30;;;8.51;53.94;99519.19;4860711;29;20209;-61
2022/01/05 04:32:41;;;;;;;3.90;1.60;;;5.70;69.30;;;8.58;53.79;99524.50;4861007;29;20211;-60
2022/01/05 04:35:29;;;;;;;6.77;1.83;;;5.70;69.10;;;8.61;53.38;99524.09;4860942;29;20668;-61
2022/01/05 04:37:57;;;;;;;4.87;1.63;;;5.70;69.00;;;8.61;53.78;99510.97;4860606;29;20221;-60
2022/01/05 04:40:24;;;;;;;8.90;2.40;;;5.70;68.90;;;8.55;53.40;99514.38;4860607;29;20196;-61
2022/01/05 04:42:52;;;;;;;5.53;1.90;;;5.80;68.50;;;8.54;53.28;99523.25;4860004;29;20222;-61
2022/01/05 04:45:19;;;;;;;5.73;1.97;;;5.80;68.70;;;8.51;53.54;99508.69;4860429;29;20193;-62
2022/01/05 04:47:46;;;;;;;9.73;2.20;;;5.80;68.60;;;8.51;53.59;99513.16;4860726;29;20208;-62
2022/01/05 04:50:15;;;;;;;9.00;2.20;;;5.80;68.60;;;8.53;53.64;99516.41;4860770;29;20235;-61
2022/01/05 04:52:44;;;;;;;10.13;2.83;;;5.80;68.50;;;8.56;53.35;99518.59;4860053;29;20202;-62
2022/01/05 04:55:11;;;;;;;8.93;2.23;;;5.70;68.60;;;8.56;53.51;99516.00;4860877;29;20202;-60
2022/01/05 04:57:39;;;;;;;5.13;1.50;;;5.80;68.50;;;8.55;53.33;99524.88;4860367;29;20616;-62
2022/01/05 05:00:08;;;;;;;8.83;2.23;;;5.80;68.60;;;8.55;53.50;99524.88;4860443;29;20198;-62
2022/01/05 05:02:35;;;;;;;6.40;2.00;;;5.80;68.60;;;8.55;53.47;99517.00;4860084;29;20228;-62
2022/01/05 05:05:04;;;;;;;10.70;2.13;;;5.70;69.30;;;8.55;53.30;99514.38;4863909;29;20204;-59
2022/01/05 05:07:31;;;;;;;6.93;2.47;;;5.70;68.40;;;8.55;53.38;99509.13;4864288;29;20200;-61
2022/01/05 05:10:05;;;;;;;9.37;1.93;;;5.70;68.50;;;8.57;53.52;99507.13;4864024;29;20368;-61
2022/01/05 05:12:33;;;;;;;8.80;2.33;;;5.80;68.70;;;8.58;53.15;99514.78;4862394;29;20206;-62
2022/01/05 05:15:00;;;;;;;8.13;2.03;;;5.70;68.40;;;8.63;53.20;99522.09;4863683;29;20214;-61
2022/01/05 05:17:28;;;;;;;6.37;2.20;;;5.70;68.40;;;8.59;52.85;99526.91;4863529;29;20252;-62
2022/01/05 05:19:55;;;;;;;9.10;2.37;;;5.70;68.40;;;8.61;52.94;99524.09;4862981;29;20210;-61
2022/01/05 05:22:23;;;;;;;9.63;2.67;;;5.80;68.40;;;8.63;53.22;99522.09;4863330;29;20666;-62
2022/01/05 05:24:50;;;;;;;8.77;2.40;;;5.80;68.30;;;8.68;52.93;99514.44;4863550;29;20226;-61
2022/01/05 05:27:19;;;;;;;13.40;3.63;;;5.80;68.30;;;8.70;53.13;99510.63;4863299;29;20220;-60
2022/01/05 05:29:46;;;;;;;6.93;1.73;;;5.80;68.30;;;8.75;53.07;99518.75;4863319;29;20565;-61
2022/01/05 05:32:14;;;;;;;12.77;2.70;;;5.90;68.20;;;8.71;52.64;99507.03;4863390;29;20193;-58
2022/01/05 05:34:41;;;;;;;3.80;1.97;;;5.90;67.90;;;8.69;52.69;99518.72;4862970;29;20220;-59
2022/01/05 05:37:09;;;;;;;9.73;2.20;;;5.80;67.70;;;8.65;52.77;99514.88;4863259;29;20235;-59
2022/01/05 05:39:36;;;;;;;6.17;1.90;;;5.90;67.90;;;8.64;52.90;99510.59;4863264;29;20200;-60
2022/01/05 05:42:04;;;;;;;6.93;2.27;;;5.90;67.90;;;8.63;52.79;99511.59;4863659;29;20196;-61
2022/01/05 05:44:33;;;;;;;7.10;2.47;;;5.90;67.80;;;8.63;52.71;99516.84;4861854;29;20292;-61
2022/01/05 05:47:05;;;;;;;9.10;2.30;;;5.90;67.80;;;8.63;52.75;99506.34;4863268;29;20664;-58
2022/01/05 05:49:33;;;;;;;10.60;2.50;;;5.90;67.90;;;8.63;52.96;99506.34;4862763;29;20240;-60
2022/01/05 05:52:00;;;;;;;8.57;2.23;;;5.90;67.80;;;8.62;52.89;99496.88;4862702;29;20289;-59
2022/01/05 05:54:28;;;;;;;11.33;2.80;;;5.80;67.70;;;8.60;52.95;99501.50;4862617;29;20304;-61
2022/01/05 05:56:55;;;;;;;12.13;2.50;;;5.90;67.70;;;8.58;52.82;99498.28;4862891;29;20278;-61
2022/01/05 05:59:23;;;;;;;8.80;2.00;;;5.80;67.60;;;8.55;53.01;99494.22;4863202;29;20663;-61
2022/01/05 06:01:51;;;;;;;8.73;2.00;;;5.80;67.80;;;8.56;53.03;99502.88;4862993;29;20198;-62
2022/01/05 06:04:19;;;;;;;7.50;2.30;;;5.80;67.80;;;8.55;53.13;99509.97;4862613;29;20222;-62
2022/01/05 06:06:46;;;;;;;8.70;2.27;;;5.80;67.80;;;8.54;53.06;99504.88;4861786;29;20636;-62
2022/01/05 06:09:14;;;;;;;6.53;2.53;;;5.70;67.90;;;8.54;52.97;99508.31;4862588;29;20201;-62
2022/01/05 06:11:41;;;;;;;8.93;2.20;;;5.70;67.80;;;8.51;52.88;99502.66;4862861;29;20196;-62
2022/01/05 06:14:08;;;;;;;9.90;2.20;;;5.70;67.90;;;8.50;53.18;99499.22;4861929;29;20301;-60
2022/01/05 06:16:36;;;;;;;11.27;1.80;;;5.70;67.90;;;8.51;53.05;99519.19;4862333;29;20225;-63
2022/01/05 06:19:04;;;;;;;8.23;2.17;;;5.70;68.00;;;8.49;52.95;99499.41;4862475;29;20252;-62
2022/01/05 06:21:32;;;;;;;5.83;2.23;;;5.70;67.90;;;8.48;52.83;99508.28;4861882;29;20193;-63
2022/01/05 06:23:59;;;;;;;6.77;2.77;;;5.70;67.80;;;8.47;52.97;99512.72;4861947;29;20700;-62
2022/01/05 06:26:27;;;;;;;8.30;2.03;;;5.70;67.80;;;8.45;52.82;99508.66;4861626;29;20259;-61
2022/01/05 06:28:54;;;;;;;12.10;2.63;;;5.70;67.70;;;8.41;52.99;99507.44;4862441;29;20219;-62
2022/01/05 06:31:22;;;;;;;9.27;2.37;;;5.70;67.70;;;8.43;53.29;99510.66;4862393;29;20252;-59
2022/01/05 06:33:49;;;;;;;8.07;2.53;;;5.80;67.90;;;8.48;53.15;99509.09;4861833;29;20221;-60
2022/01/05 06:36:18;;;;;;;9.23;2.50;;;5.80;68.00;;;8.55;53.03;99514.38;4862283;29;20231;-61
2022/01/05 06:38:45;;;;;;;6.40;2.10;;;5.80;68.00;;;8.63;53.31;99527.34;4860988;29;20197;-63
2022/01/05 06:41:12;;;;;;;7.73;2.07;;;5.80;68.10;;;8.67;52.51;99523.34;4861017;29;20248;-61
2022/01/05 06:43:40;;;;;;;7.20;2.73;;;5.80;68.00;;;8.70;52.92;99530.84;4861442;29;20218;-61
2022/01/05 06:46:07;;;;;;;5.93;1.90;;;5.90;68.00;;;8.71;52.96;99524.56;4861942;29;20222;-64
2022/01/05 06:48:34;;;;;;;7.20;2.17;;;5.90;67.90;;;8.72;52.56;99521.75;4861787;29;20246;-60
2022/01/05 06:51:02;;;;;;;7.93;2.57;;;5.90;67.70;;;8.72;52.69;99527.00;4861746;29;20206;-61
2022/01/05 06:53:31;;;;;;;10.63;2.30;;;5.90;67.50;;;8.71;52.37;99524.56;4861421;29;20243;-63
2022/01/05 06:55:58;;;;;;;12.60;2.83;;;5.90;67.60;;;8.71;52.52;99530.63;4861541;29;20631;-61
2022/01/05 06:58:26;;;;;;;8.20;2.20;;;5.90;67.50;;;8.73;52.69;99533.06;4861058;29;20263;-61
2022/01/05 07:00:53;;;;;;;10.33;2.63;;;5.90;67.70;;;8.72;52.74;99532.22;4861220;29;20215;-61
2022/01/05 07:03:21;;;;;;;9.00;2.63;;;5.90;67.70;;;8.73;52.48;99540.91;4861004;29;20247;-62
2022/01/05 07:05:48;;;;;;;10.47;2.77;;;5.90;67.80;;;8.74;52.83;99529.44;4861219;29;20674;-62
2022/01/05 07:08:16;;;;;;;5.87;2.17;;;5.90;67.80;;;8.76;52.29;99537.91;4861027;29;20194;-61
2022/01/05 07:10:44;;;;;;;12.33;2.70;;;5.90;67.80;;;8.78;52.67;99536.72;4861394;29;20284;-61
2022/01/05 07:13:12;;;;;;;10.47;2.27;;;5.90;67.90;;;8.83;53.00;99534.34;4860604;29;20249;-62
2022/01/05 07:15:39;;;;;;;7.63;2.23;;;5.90;67.90;;;8.89;52.61;99534.56;4861178;29;20726;-61
2022/01/05 07:18:07;;;;;;;9.20;3.10;;;6.00;68.10;;;8.92;52.83;99526.28;4860840;29;20227;-63
2022/01/05 07:20:34;;;;;;;9.80;2.40;;;6.00;68.20;;;8.98;52.23;99530.78;4860245;29;20650;-63
2022/01/05 07:23:02;;;;;;;6.47;2.13;;;6.00;68.10;;;9.03;52.10;99513.47;4861101;29;20240;-62
2022/01/05 07:25:29;;;;;;;9.90;2.83;;;6.10;68.00;;;9.09;52.23;99517.09;4861047;29;20285;-63
2022/01/05 07:27:58;;;;;;;10.17;2.53;;;6.10;67.80;;;9.13;52.14;99503.38;4858938;29;20192;-62
2022/01/05 07:30:26;;;;;;;10.23;2.10;;;6.20;67.90;;;9.12;52.13;99514.09;4860618;29;20282;-62
2022/01/05 07:32:53;;;;;;;11.20;3.00;;;6.20;67.70;;;9.19;52.03;99515.75;4859898;29;20209;-61
2022/01/05 07:35:21;;;;;;;8.33;2.13;;;6.20;67.70;;;9.04;52.47;99511.63;4860734;29;20619;-60
2022/01/05 07:37:48;;;;;;;5.63;1.93;;;6.30;67.70;;;9.08;52.58;99513.66;4860444;29;20313;-62
2022/01/05 07:40:16;;;;;;;14.40;3.17;;;6.30;67.80;;;9.16;52.57;99503.00;4859769;29;20542;-62
2022/01/05 07:42:43;;;;;;;16.80;7.43;;;6.40;68.00;;;9.21;52.72;99511.13;4859265;29;20208;-62
2022/01/05 07:45:12;;;;;;;8.43;3.23;;;6.40;68.10;;;9.25;52.87;99517.56;4861062;29;20189;-62
2022/01/05 07:47:40;;;;;;;11.10;2.73;;;6.40;68.10;;;9.29;52.71;99513.56;4860476;29;20674;-62
2022/01/05 07:50:14;;;;;;;10.00;2.77;;;6.50;68.10;;;9.33;52.90;99509.53;4860509;29;20220;-61
2022/01/05 07:52:43;;;;;;;10.53;2.43;;;6.50;68.20;;;9.35;52.61;99512.78;4859817;29;20200;-61
2022/01/05 07:55:11;;;;;;;14.10;3.23;;;6.50;68.30;;;9.40;52.86;99510.38;4860797;29;20193;-60
2022/01/05 07:57:38;;;;;;;10.87;3.03;;;6.50;68.80;;;9.42;53.24;99507.53;4859181;29;20223;-62
2022/01/05 08:00:08;;;;;;;5.03;2.10;;;6.50;69.10;;;9.43;53.14;99514.44;4860160;29;20194;-62
2022/01/05 08:02:37;;;;;;;7.30;2.73;;;6.50;69.10;;;9.42;52.87;99510.97;4860328;29;20200;-61
2022/01/05 08:05:07;;;;;;;9.87;2.70;;;6.50;69.20;;;9.43;53.42;99514.44;4860405;29;20300;-52
2022/01/05 08:07:36;;;;;;;9.13;3.17;;;6.50;69.30;;;9.48;53.19;99518.06;4860238;29;20197;-53
2022/01/05 08:10:04;;;;;;;10.33;2.90;;;6.50;69.60;;;9.53;53.58;99526.16;4859931;29;20303;-55
2022/01/05 08:12:32;;;;;;;9.70;2.37;;;6.60;69.80;;;9.57;53.04;99520.53;4859953;29;20260;-51
2022/01/05 08:14:59;;;;;;;4.73;2.37;;;6.70;69.70;;;9.64;53.41;99523.97;4860251;29;20219;-54
2022/01/05 08:17:26;;;;;;;6.83;2.70;;;6.70;69.90;;;9.68;53.20;99512.03;4858826;29;20227;-55
2022/01/05 08:19:55;;;;;;;7.13;2.77;;;6.70;70.00;;;9.73;53.25;99520.16;4859378;29;20232;-55
2022/01/05 08:22:22;;;;;;;11.87;3.03;;;6.70;70.50;;;9.71;53.43;99537.94;4858077;29;20257;-54
2022/01/05 08:24:50;;;;;;;8.03;2.37;;;6.70;70.50;;;9.73;53.62;99530.66;4860065;29;20244;-54
2022/01/05 08:27:18;;;;;;;8.60;2.67;;;6.80;70.70;;;9.68;53.95;99519.94;4860663;29;20219;-50
2022/01/05 08:29:45;;;;;;;9.93;2.60;;;6.80;70.50;;;9.69;54.12;99532.88;4860600;29;20200;-51
2022/01/05 08:32:14;;;;;;;7.83;3.07;;;6.90;70.70;;;9.71;54.17;99532.69;4860470;29;20251;-50
2022/01/05 08:34:41;;;;;;;11.80;2.80;;;6.80;70.50;;;9.71;53.83;99533.50;4859524;29;20231;-50
2022/01/05 08:37:11;;;;;;;6.07;2.57;;;6.80;70.70;;;9.73;54.38;99535.91;4860567;29;20226;-50
2022/01/05 08:39:38;;;;;;;6.50;2.23;;;6.80;70.90;;;9.74;54.32;99538.34;4864055;29;20202;-53
2022/01/05 08:42:06;;;;;;;6.13;2.60;;;6.80;71.10;;;9.77;54.08;99543.19;4864421;29;20741;-55
2022/01/05 08:44:33;;;;;;;7.47;2.60;;;6.80;71.30;;;9.80;53.88;99547.25;4863806;29;20222;-54
2022/01/05 08:47:01;;;;;;;10.60;2.97;;;6.80;71.50;;;9.80;54.31;99547.25;4863950;29;20204;-50
2022/01/05 08:49:28;;;;;;;8.40;2.57;;;6.80;71.60;;;9.79;54.60;99540.38;4857322;29;20224;-53
2022/01/05 08:51:56;;;;;;;7.07;2.77;;;6.80;71.70;;;9.82;54.30;99550.47;4862626;29;20209;-55
2022/01/05 08:54:24;;;;;;;6.23;2.87;;;6.80;71.80;;;9.82;54.41;99545.22;4863435;29;20212;-55
2022/01/05 08:56:54;;;;;;;6.97;2.90;;;6.80;71.80;;;9.79;55.13;99550.91;4863700;29;20903;-53
2022/01/05 08:59:23;;;;;;;10.03;3.20;;;6.90;71.90;;;9.83;54.69;99552.09;4863333;29;20201;-53
2022/01/05 09:01:51;;;;;;;9.07;3.17;;;6.90;71.80;;;9.86;55.00;99546.47;4862500;29;20219;-54
2022/01/05 09:04:19;;;;;;;10.60;2.77;;;6.90;71.90;;;9.93;54.87;99547.28;4857052;29;20224;-55
2022/01/05 09:06:46;;;;;;;6.73;3.00;;;6.90;71.90;;;9.98;54.90;99544.88;4863326;29;20264;-60
2022/01/05 09:09:14;;;;;;;6.53;2.90;;;6.90;72.10;;;9.98;54.08;99539.63;4862992;29;20197;-59
2022/01/05 09:11:42;;;;;;;6.40;2.57;;;6.90;71.90;;;9.92;54.56;99529.88;4863153;29;20232;-60
2022/01/05 09:14:10;;;;;;;5.90;2.53;;;6.90;71.90;;;9.90;54.94;99542.41;4862981;29;20220;-59
2022/01/05 09:16:37;;;;;;;6.60;3.57;;;6.90;72.10;;;9.85;55.10;99547.47;4862224;29;20276;-59
2022/01/05 09:19:05;;;;;;;6.50;2.90;;;6.90;71.90;;;9.88;54.45;99544.44;4863533;29;20598;-60
2022/01/05 09:21:33;;;;;;;7.57;2.93;;;6.90;71.90;;;9.93;55.04;99542.03;4863560;29;20539;-59
2022/01/05 09:24:00;;;;;;;7.50;2.57;;;6.90;72.10;;;9.98;54.61;99534.34;4862629;29;20216;-62
2022/01/05 09:26:28;;;;;;;7.00;2.50;;;7.00;72.30;;;10.03;54.81;99537.97;4863229;29;20209;-60
2022/01/05 09:28:56;;;;;;;4.07;2.23;;;7.00;72.60;;;10.04;54.89;99544.06;4845859;29;20214;-57
2022/01/05 09:31:24;;;;;;;7.20;3.50;;;7.00;72.90;;;10.03;55.55;99534.56;4853760;29;20201;-56
2022/01/05 09:33:51;;;;;;;7.77;2.57;;;7.00;73.10;;;10.02;54.69;99532.94;4863086;29;20244;-58
2022/01/05 09:36:30;;;;;;;5.47;2.50;;;7.00;73.30;;;10.02;55.27;99536.38;4864207;29;20208;-56
2022/01/05 09:42:00;;;;;;;4.50;3.03;;;7.10;73.20;;;9.99;55.89;99538.59;4862522;29;20220;-58
2022/01/05 09:44:32;;;;;;;7.77;3.37;;;7.10;73.30;;;10.03;55.60;99547.72;4862753;29;20562;-56
2022/01/05 09:47:42;;;;;;;7.17;2.60;;;7.10;73.30;;;10.02;55.86;99540.81;4862331;29;20236;-61
2022/01/05 09:50:12;;;;;;;4.47;2.60;;;7.10;73.50;;;10.05;56.23;99540.44;4863594;29;20678;-61
2022/01/05 09:52:42;;;;;;;5.13;2.50;;;7.10;73.70;;;10.05;55.93;99540.44;4863500;29;20185;-62
2022/01/05 09:55:12;;;;;;;6.33;2.93;;;7.10;73.70;;;10.08;56.00;99530.31;4856584;29;20663;-61
2022/01/05 09:57:42;;;;;;;5.53;2.70;;;7.10;73.60;;;10.10;55.54;99532.75;4854565;29;20311;-60
2022/01/05 10:00:14;;;;;;;8.00;2.63;;;7.10;73.60;;;10.09;55.90;99531.13;4853079;29;20198;-61
2022/01/05 10:02:45;;;;;;;5.13;2.47;;;7.10;73.30;;;10.06;55.73;99521.00;4853832;29;20208;-62
2022/01/05 10:05:18;;;;;;;5.03;2.67;;;7.10;73.40;;;10.02;55.76;99532.94;4855808;29;20207;-62
2022/01/05 10:07:45;;;;;;;4.70;2.33;;;7.10;73.70;;;10.00;56.14;99527.06;4854194;29;20249;-61
2022/01/05 10:10:13;;;;;;;6.53;2.70;;;7.10;73.70;;;9.98;55.61;99539.63;4852560;29;20551;-62
2022/01/05 10:12:41;;;;;;;3.47;2.07;;;7.00;73.60;;;9.94;55.59;99554.13;4852168;29;20212;-63
2022/01/05 10:15:13;;;;;;;2.37;1.87;;;7.00;73.60;;;9.90;56.15;99555.56;4849970;29;20205;-62
2022/01/05 10:17:41;;;;;;;2.30;2.00;;;7.00;73.90;;;9.91;56.38;99547.47;4853988;29;20237;-63
2022/01/05 10:20:12;;;;;;;2.10;1.27;;;7.00;74.20;;;9.90;55.88;99542.41;4854455;29;20193;-57
2022/01/05 10:22:41;;;;;;;2.30;1.37;;;7.00;74.10;;;9.89;56.47;99527.69;4853743;29;20303;-59
2022/01/05 10:25:17;;;;;;;1.83;1.30;;;6.90;74.10;;;9.67;56.14;99526.22;4838153;29;20200;-60
2022/01/05 10:27:56;;;;;;;2.07;1.40;;;6.90;73.80;;;9.60;56.73;99546.41;4854483;29;20197;-59
2022/01/05 10:30:37;;;;;;;1.43;1.10;;;6.90;74.00;;;9.59;56.28;99561.34;4861405;29;20200;-60
2022/01/05 10:33:06;;;;;;;1.00;1.00;;;6.80;74.00;;;9.61;56.37;99558.50;4857454;29;20582;-61
2022/01/05 10:35:35;;;;;;;1.43;1.33;;;6.70;74.20;;;9.61;56.94;99574.25;4860563;29;20678;-60
2022/01/05 10:38:07;;;;;;;1.20;1.10;;;6.80;74.40;;;9.62;56.89;99560.13;4858873;29;20267;-60
2022/01/05 10:40:37;;;;;;;1.57;1.37;;;6.80;74.40;;;9.57;56.60;99565.16;4861649;29;20204;-58